createdAt,value
2022-10-09T00:01:50.807Z,62.10
2022-10-09T00:04:18.354Z,61.30
2022-10-09T00:06:45.938Z,61.40
2022-10-09T00:09:13.366Z,61.40
2022-10-09T00:11:40.931Z,61.50
2022-10-09T00:14:09.849Z,61.60
2022-10-09T00:16:37.464Z,61.70
2022-10-09T00:19:05.056Z,61.90
2022-10-09T00:21:33.207Z,62.10
2022-10-09T00:24:02.170Z,62.40
2022-10-09T00:26:29.877Z,62.60
2022-10-09T00:28:57.586Z,62.90
2022-10-09T00:31:26.596Z,63.10
2022-10-09T00:33:54.067Z,63.10
2022-10-09T00:36:22.687Z,63.20
2022-10-09T00:38:50.283Z,63.30
2022-10-09T00:41:19.247Z,63.40
2022-10-09T00:43:48.281Z,63.20
2022-10-09T00:46:34.502Z,63.20
2022-10-09T00:49:13.438Z,63.00
2022-10-09T00:51:40.925Z,63.00
2022-10-09T00:54:09.761Z,63.80
2022-10-09T00:56:37.233Z,62.90
2022-10-09T00:59:04.729Z,63.00
2022-10-09T01:01:33.776Z,62.90
2022-10-09T01:04:01.686Z,62.90
2022-10-09T01:06:36.853Z,62.80
2022-10-09T01:09:06.595Z,62.80
2022-10-09T01:11:39.441Z,62.80
2022-10-09T01:14:13.103Z,62.70
2022-10-09T01:16:43.959Z,62.80
2022-10-09T01:19:16.587Z,62.90
2022-10-09T01:21:46.971Z,63.00
2022-10-09T01:24:22.073Z,62.90
2022-10-09T01:27:06.543Z,62.80
2022-10-09T01:29:36.076Z,62.40
2022-10-09T01:32:03.689Z,62.60
2022-10-09T01:34:31.169Z,62.50
2022-10-09T01:36:58.744Z,62.40
2022-10-09T01:39:26.324Z,62.30
2022-10-09T01:41:53.885Z,62.10
2022-10-09T01:44:24.263Z,62.10
2022-10-09T01:46:51.799Z,62.00
2022-10-09T01:49:28.317Z,61.90
2022-10-09T01:52:00.113Z,61.70
2022-10-09T01:54:32.714Z,61.70
2022-10-09T01:57:00.329Z,61.50
2022-10-09T01:59:29.332Z,61.50
2022-10-09T02:01:57.061Z,61.30
2022-10-09T02:04:24.735Z,61.30
2022-10-09T02:06:52.251Z,61.30
2022-10-09T02:09:19.854Z,61.20
2022-10-09T02:11:49.899Z,61.20
2022-10-09T02:14:17.626Z,61.00
2022-10-09T02:16:47.683Z,61.00
2022-10-09T02:19:18.004Z,60.90
2022-10-09T02:21:51.340Z,60.90
2022-10-09T02:24:22.070Z,61.00
2022-10-09T02:26:49.639Z,61.00
2022-10-09T02:29:17.268Z,60.90
2022-10-09T02:31:46.306Z,60.90
2022-10-09T02:34:16.889Z,60.90
2022-10-09T02:36:44.541Z,60.90
2022-10-09T02:39:12.132Z,60.80
2022-10-09T02:41:39.653Z,60.90
2022-10-09T02:44:07.481Z,60.90
2022-10-09T02:46:35.242Z,61.00
2022-10-09T02:49:04.518Z,61.10
2022-10-09T02:51:32.008Z,61.20
2022-10-09T02:53:59.762Z,61.20
2022-10-09T02:56:27.321Z,61.30
2022-10-09T02:58:54.836Z,61.40
2022-10-09T03:01:22.469Z,61.40
2022-10-09T03:03:50.101Z,61.40
2022-10-09T03:06:20.730Z,61.60
2022-10-09T03:08:48.927Z,61.70
2022-10-09T03:11:17.334Z,61.80
2022-10-09T03:13:45.411Z,61.80
2022-10-09T03:16:13.786Z,62.00
2022-10-09T03:18:41.836Z,62.00
2022-10-09T03:21:10.237Z,62.10
2022-10-09T03:23:39.385Z,62.20
2022-10-09T03:26:08.074Z,62.30
2022-10-09T03:28:36.128Z,62.40
2022-10-09T03:31:03.844Z,62.50
2022-10-09T03:33:31.303Z,62.50
2022-10-09T03:35:58.932Z,62.60
2022-10-09T03:38:26.467Z,62.70
2022-10-09T03:40:55.416Z,62.70
2022-10-09T03:43:23.160Z,62.90
2022-10-09T03:45:50.744Z,62.90
2022-10-09T03:48:18.292Z,62.90
2022-10-09T03:50:45.852Z,63.00
2022-10-09T03:53:13.536Z,63.10
2022-10-09T03:55:41.235Z,63.10
2022-10-09T03:58:10.429Z,64.00
2022-10-09T04:00:38.107Z,63.40
2022-10-09T04:03:05.813Z,63.50
2022-10-09T04:05:34.181Z,63.70
2022-10-09T04:08:01.703Z,63.90
2022-10-09T04:10:29.224Z,64.00
2022-10-09T04:12:56.678Z,64.10
2022-10-09T04:15:25.761Z,64.00
2022-10-09T04:17:53.342Z,64.00
2022-10-09T04:20:20.934Z,64.00
2022-10-09T04:22:48.686Z,64.00
2022-10-09T04:25:16.709Z,63.90
2022-10-09T04:27:44.351Z,63.90
2022-10-09T04:30:13.043Z,63.90
2022-10-09T04:32:42.064Z,64.00
2022-10-09T04:35:09.806Z,63.80
2022-10-09T04:37:37.390Z,63.70
2022-10-09T04:40:05.660Z,64.40
2022-10-09T04:42:33.085Z,63.50
2022-10-09T04:45:00.569Z,63.40
2022-10-09T04:47:28.076Z,63.20
2022-10-09T04:49:57.202Z,63.10
2022-10-09T04:52:24.790Z,63.10
2022-10-09T04:54:52.387Z,63.10
2022-10-09T04:57:19.962Z,63.10
2022-10-09T04:59:47.526Z,63.00
2022-10-09T05:02:15.162Z,63.10
2022-10-09T05:04:42.720Z,63.10
2022-10-09T05:07:11.743Z,63.10
2022-10-09T05:09:39.203Z,63.10
2022-10-09T05:12:06.797Z,63.10
2022-10-09T05:14:34.265Z,63.10
2022-10-09T05:17:13.529Z,63.10
2022-10-09T05:19:42.961Z,63.10
2022-10-09T05:22:11.951Z,63.20
2022-10-09T05:24:39.466Z,63.10
2022-10-09T05:27:07.026Z,63.10
2022-10-09T05:29:34.651Z,63.10
2022-10-09T05:32:02.154Z,63.10
2022-10-09T05:34:29.954Z,63.10
2022-10-09T05:36:57.481Z,63.20
2022-10-09T05:39:26.548Z,63.20
2022-10-09T05:41:54.066Z,63.10
2022-10-09T05:44:21.849Z,63.10
2022-10-09T05:46:49.479Z,63.10
2022-10-09T05:49:16.967Z,63.20
2022-10-09T05:51:44.576Z,63.30
2022-10-09T05:54:14.286Z,63.30
2022-10-09T05:56:43.417Z,63.30
2022-10-09T05:59:12.271Z,63.30
2022-10-09T06:01:40.944Z,63.30
2022-10-09T06:04:09.257Z,63.30
2022-10-09T06:06:37.707Z,63.50
2022-10-09T06:09:05.327Z,63.40
2022-10-09T06:11:33.966Z,63.40
2022-10-09T06:14:04.594Z,63.40
2022-10-09T06:16:32.890Z,63.30
2022-10-09T06:19:00.500Z,63.30
2022-10-09T06:21:28.174Z,63.30
2022-10-09T06:23:57.233Z,63.30
2022-10-09T06:26:25.373Z,63.20
2022-10-09T06:28:53.359Z,63.20
2022-10-09T06:31:23.335Z,63.10
2022-10-09T06:33:51.413Z,63.10
2022-10-09T06:36:19.831Z,63.10
2022-10-09T06:38:47.373Z,63.10
2022-10-09T06:41:16.050Z,63.00
2022-10-09T06:43:43.697Z,62.90
2022-10-09T06:46:12.283Z,62.90
2022-10-09T06:48:41.271Z,62.80
2022-10-09T06:51:09.777Z,62.70
2022-10-09T06:53:37.378Z,62.70
2022-10-09T06:56:05.230Z,62.70
2022-10-09T06:58:32.802Z,62.60
2022-10-09T07:01:04.559Z,62.60
2022-10-09T07:03:32.259Z,62.60
2022-10-09T07:06:11.487Z,62.70
2022-10-09T07:08:39.122Z,62.40
2022-10-09T07:11:10.841Z,62.70
2022-10-09T07:13:38.318Z,62.70
2022-10-09T07:16:06.694Z,62.70
2022-10-09T07:18:34.342Z,62.70
2022-10-09T07:21:02.586Z,62.80
2022-10-09T07:23:31.665Z,62.80
2022-10-09T07:25:59.108Z,62.80
2022-10-09T07:28:27.259Z,62.90
2022-10-09T07:30:55.596Z,62.90
2022-10-09T07:33:23.127Z,62.90
2022-10-09T07:35:54.544Z,62.90
2022-10-09T07:38:22.220Z,62.90
2022-10-09T07:40:51.331Z,63.00
2022-10-09T07:43:18.998Z,63.00
2022-10-09T07:45:46.657Z,62.90
2022-10-09T07:48:14.169Z,63.00
2022-10-09T07:50:41.740Z,63.00
2022-10-09T07:53:09.204Z,63.00
2022-10-09T07:55:36.858Z,63.00
2022-10-09T07:58:05.906Z,63.00
2022-10-09T08:00:33.559Z,63.00
2022-10-09T08:03:01.149Z,63.00
2022-10-09T08:05:28.740Z,63.00
2022-10-09T08:07:56.231Z,63.00
2022-10-09T08:10:23.703Z,62.90
2022-10-09T08:12:51.658Z,62.90
2022-10-09T08:15:21.520Z,62.90
2022-10-09T08:17:48.943Z,62.80
2022-10-09T08:20:16.739Z,62.90
2022-10-09T08:22:44.278Z,62.90
2022-10-09T08:25:11.959Z,62.90
2022-10-09T08:27:39.601Z,62.90
2022-10-09T08:30:08.974Z,62.90
2022-10-09T08:32:37.985Z,62.90
2022-10-09T08:35:06.639Z,63.00
2022-10-09T08:37:34.185Z,63.00
2022-10-09T08:40:01.702Z,63.00
2022-10-09T08:42:31.985Z,63.00
2022-10-09T08:44:59.505Z,63.00
2022-10-09T08:47:30.519Z,63.10
2022-10-09T08:50:00.919Z,63.10
2022-10-09T08:52:34.664Z,63.20
2022-10-09T08:55:07.127Z,63.30
2022-10-09T08:57:34.682Z,63.50
2022-10-09T09:00:02.255Z,63.60
2022-10-09T09:02:38.821Z,63.60
2022-10-09T09:05:29.086Z,63.70
2022-10-09T09:08:00.376Z,63.60
2022-10-09T09:10:33.959Z,63.70
2022-10-09T09:13:04.055Z,63.70
2022-10-09T09:15:40.426Z,63.70
2022-10-09T09:18:18.117Z,63.80
2022-10-09T09:20:51.509Z,63.80
2022-10-09T09:23:19.165Z,64.80
2022-10-09T09:25:46.980Z,63.90
2022-10-09T09:28:17.832Z,64.00
2022-10-09T09:30:47.983Z,64.00
2022-10-09T09:33:17.782Z,64.10
2022-10-09T09:35:49.634Z,64.20
2022-10-09T09:38:17.195Z,64.20
2022-10-09T09:40:47.319Z,64.20
2022-10-09T09:43:18.137Z,64.20
2022-10-09T09:45:45.693Z,64.20
2022-10-09T09:48:15.585Z,64.20
2022-10-09T09:50:56.352Z,64.20
2022-10-09T09:53:34.986Z,64.20
2022-10-09T09:56:02.652Z,64.30
2022-10-09T09:58:34.500Z,64.30
2022-10-09T10:01:02.491Z,64.20
2022-10-09T10:03:30.692Z,64.20
2022-10-09T10:05:58.158Z,64.10
2022-10-09T10:08:26.848Z,64.10
2022-10-09T10:10:57.439Z,64.20
2022-10-09T10:13:32.845Z,64.10
2022-10-09T10:16:00.509Z,64.20
2022-10-09T10:18:28.658Z,64.20
2022-10-09T10:20:56.953Z,64.30
2022-10-09T10:23:31.173Z,64.20
2022-10-09T10:26:00.726Z,64.30
2022-10-09T10:28:31.310Z,64.30
2022-10-09T10:30:59.476Z,64.40
2022-10-09T10:33:27.905Z,64.50
2022-10-09T10:35:55.807Z,64.40
2022-10-09T10:38:27.341Z,64.60
2022-10-09T10:40:57.506Z,64.60
2022-10-09T10:43:35.012Z,64.70
2022-10-09T10:46:08.635Z,64.50
2022-10-09T10:48:39.223Z,64.80
2022-10-09T10:51:15.285Z,64.80
2022-10-09T10:53:52.130Z,64.70
2022-10-09T10:56:23.576Z,64.80
2022-10-09T10:58:58.582Z,64.90
2022-10-09T11:01:30.949Z,64.90
2022-10-09T11:04:12.033Z,65.70
2022-10-09T11:06:42.055Z,65.00
2022-10-09T11:09:12.065Z,65.00
2022-10-09T11:11:42.378Z,65.10
2022-10-09T11:14:20.413Z,65.20
2022-10-09T11:16:53.527Z,65.30
2022-10-09T11:19:30.052Z,65.30
2022-10-09T11:22:01.556Z,65.30
2022-10-09T11:24:55.382Z,65.40
2022-10-09T11:27:24.685Z,65.40
2022-10-09T11:29:56.657Z,65.70
2022-10-09T11:32:27.319Z,65.80
2022-10-09T11:34:58.530Z,65.80
2022-10-09T11:37:28.684Z,65.90
2022-10-09T11:39:56.654Z,65.90
2022-10-09T11:42:24.912Z,66.10
2022-10-09T11:45:01.006Z,66.10
2022-10-09T11:47:32.013Z,66.20
2022-10-09T11:50:18.490Z,66.10
2022-10-09T11:52:50.302Z,66.00
2022-10-09T11:55:19.921Z,66.60
2022-10-09T11:57:47.846Z,66.70
2022-10-09T12:00:28.008Z,67.20
2022-10-09T12:02:58.356Z,68.10
2022-10-09T12:05:39.484Z,68.30
2022-10-09T12:08:08.897Z,68.50
2022-10-09T12:10:38.662Z,68.30
2022-10-09T12:13:07.063Z,67.90
2022-10-09T12:15:45.514Z,67.80
2022-10-09T12:18:19.642Z,67.90
2022-10-09T12:20:47.868Z,68.40
2022-10-09T12:23:31.715Z,68.30
2022-10-09T12:25:59.460Z,67.80
2022-10-09T12:28:31.005Z,68.40
2022-10-09T12:31:01.571Z,68.40
2022-10-09T12:33:31.225Z,68.60
2022-10-09T12:36:01.222Z,68.50
2022-10-09T12:38:30.198Z,68.40
2022-10-09T12:40:59.598Z,68.60
2022-10-09T12:43:27.234Z,68.70
2022-10-09T12:45:55.026Z,68.90
2022-10-09T12:48:24.944Z,69.50
2022-10-09T12:50:52.744Z,68.70
2022-10-09T12:53:21.026Z,68.60
2022-10-09T12:55:50.342Z,68.60
2022-10-09T12:58:20.546Z,68.60
2022-10-09T13:00:48.963Z,68.50
2022-10-09T13:03:27.050Z,68.40
2022-10-09T13:05:56.761Z,68.30
2022-10-09T13:08:26.358Z,68.30
2022-10-09T13:10:54.163Z,68.20
2022-10-09T13:13:25.476Z,68.20
2022-10-09T13:16:00.337Z,68.10
2022-10-09T13:18:29.519Z,68.30
2022-10-09T13:21:02.030Z,68.60
2022-10-09T13:23:31.186Z,68.70
2022-10-09T13:26:03.175Z,68.70
2022-10-09T13:28:34.112Z,68.80
2022-10-09T13:31:07.832Z,68.80
2022-10-09T13:33:37.122Z,69.00
2022-10-09T13:36:05.148Z,69.20
2022-10-09T13:38:34.962Z,69.20
2022-10-09T13:41:03.205Z,69.10
2022-10-09T13:43:30.829Z,69.10
2022-10-09T13:45:58.532Z,69.10
2022-10-09T13:48:26.207Z,69.00
2022-10-09T13:50:55.307Z,68.90
2022-10-09T13:53:22.950Z,68.80
2022-10-09T13:55:52.877Z,69.30
2022-10-09T13:58:21.905Z,69.80
2022-10-09T14:00:49.543Z,70.10
2022-10-09T14:03:17.208Z,70.40
2022-10-09T14:05:44.969Z,70.80
2022-10-09T14:08:14.145Z,70.80
2022-10-09T14:10:41.706Z,71.00
2022-10-09T14:13:09.297Z,70.80
2022-10-09T14:15:39.524Z,70.60
2022-10-09T14:18:07.205Z,70.30
2022-10-09T14:20:34.777Z,70.30
2022-10-09T14:23:02.355Z,70.40
2022-10-09T14:25:34.000Z,70.50
2022-10-09T14:28:01.559Z,70.70
2022-10-09T14:30:29.153Z,71.00
2022-10-09T14:32:56.861Z,70.80
2022-10-09T14:35:24.407Z,70.90
2022-10-09T14:37:52.103Z,71.20
2022-10-09T14:40:19.699Z,71.40
2022-10-09T14:42:48.913Z,71.30
2022-10-09T14:45:16.968Z,71.50
2022-10-09T14:47:44.534Z,71.50
2022-10-09T14:50:11.866Z,71.80
2022-10-09T14:52:39.190Z,72.00
2022-10-09T15:10:17.070Z,65.90
2022-10-09T15:12:44.629Z,68.20
2022-10-09T15:15:12.037Z,69.10
2022-10-09T15:17:39.423Z,69.80
2022-10-09T15:20:08.654Z,70.00
2022-10-09T15:22:36.224Z,70.20
2022-10-09T15:25:03.880Z,70.40
2022-10-09T15:27:43.507Z,70.50
2022-10-09T15:30:12.510Z,70.60
2022-10-09T15:32:39.991Z,70.50
2022-10-09T15:35:08.515Z,70.60
2022-10-09T15:37:35.904Z,70.70
2022-10-09T15:40:03.268Z,71.00
2022-10-09T15:42:32.152Z,71.00
2022-10-09T15:44:59.553Z,70.80
2022-10-09T15:47:49.538Z,70.70
2022-10-09T15:50:14.217Z,70.70
2022-10-09T15:52:41.793Z,70.80
2022-10-09T15:55:09.296Z,71.00
2022-10-09T15:57:38.176Z,70.90
2022-10-09T16:00:07.468Z,71.00
2022-10-09T16:02:34.819Z,70.90
2022-10-09T16:05:02.632Z,71.00
2022-10-09T16:07:30.027Z,71.00
2022-10-09T16:09:57.629Z,71.00
2022-10-09T16:12:25.123Z,71.00
2022-10-09T16:14:53.989Z,71.00
2022-10-09T16:17:21.308Z,71.00
2022-10-09T16:19:48.698Z,70.90
2022-10-09T16:22:16.032Z,70.80
2022-10-09T16:24:43.439Z,71.40
2022-10-09T16:27:10.806Z,71.30
2022-10-09T16:29:39.514Z,71.90
2022-10-09T16:32:08.270Z,72.00
2022-10-09T16:34:35.597Z,72.20
2022-10-09T16:37:02.959Z,72.40
2022-10-09T16:39:30.319Z,72.60
2022-10-09T16:41:57.691Z,72.40
2022-10-09T16:44:24.980Z,72.20
2022-10-09T16:46:53.485Z,72.20
2022-10-09T16:49:25.039Z,72.30
2022-10-09T16:51:52.753Z,72.40
2022-10-09T16:54:20.177Z,72.40
2022-10-09T16:59:29.405Z,72.70
2022-10-09T17:01:56.944Z,72.50
2022-10-09T17:04:25.757Z,72.60
2022-10-09T17:06:53.175Z,72.60
2022-10-09T17:09:20.559Z,72.80
2022-10-09T17:11:48.228Z,72.80
2022-10-09T17:14:15.604Z,72.60
2022-10-09T17:16:43.221Z,72.70
2022-10-09T17:19:10.740Z,72.80
2022-10-09T17:21:39.850Z,73.10
2022-10-09T17:24:07.656Z,73.10
2022-10-09T17:26:35.595Z,73.30
2022-10-09T17:29:02.987Z,73.30
2022-10-09T17:31:30.763Z,73.50
2022-10-09T17:33:59.255Z,73.50
2022-10-09T17:36:27.543Z,74.40
2022-10-09T17:38:56.549Z,73.70
2022-10-09T17:41:24.591Z,73.80
2022-10-09T17:43:52.375Z,73.90
2022-10-09T17:46:19.776Z,73.90
2022-10-09T17:48:47.425Z,74.10
2022-10-09T17:51:15.520Z,74.40
2022-10-09T17:53:43.069Z,74.60
2022-10-09T17:56:12.110Z,75.10
2022-10-09T17:58:39.671Z,75.10
2022-10-09T18:01:08.393Z,75.30
2022-10-09T18:03:35.989Z,75.40
2022-10-09T18:06:05.647Z,75.40
2022-10-09T18:08:33.175Z,75.50
2022-10-09T18:11:01.337Z,76.20
2022-10-09T18:13:30.750Z,75.40
2022-10-09T18:15:58.404Z,75.30
2022-10-09T18:18:26.091Z,75.30
2022-10-09T18:20:53.683Z,75.30
2022-10-09T18:23:22.849Z,75.10
2022-10-09T18:25:50.631Z,75.00
2022-10-09T18:28:18.249Z,75.00
2022-10-09T18:30:47.426Z,74.90
2022-10-09T18:33:15.066Z,74.60
2022-10-09T18:35:42.630Z,74.50
2022-10-09T18:38:10.288Z,75.10
2022-10-09T18:40:41.897Z,74.10
2022-10-09T18:43:13.397Z,73.90
2022-10-09T18:45:43.269Z,73.90
2022-10-09T18:48:12.388Z,73.70
2022-10-09T18:50:40.040Z,73.50
2022-10-09T18:53:07.634Z,73.40
2022-10-09T18:55:35.250Z,73.30
2022-10-09T18:58:02.983Z,73.10
2022-10-09T19:00:30.479Z,73.00
2022-10-09T19:02:58.068Z,72.80
2022-10-09T19:05:27.183Z,72.70
2022-10-09T19:07:54.535Z,72.60
2022-10-09T19:10:22.048Z,72.40
2022-10-09T19:12:49.738Z,72.30
2022-10-09T19:15:17.298Z,72.30
2022-10-09T19:17:44.886Z,72.30
2022-10-09T19:20:12.643Z,72.20
2022-10-09T19:22:41.685Z,72.20
2022-10-09T19:25:09.722Z,72.10
2022-10-09T19:27:37.408Z,72.00
2022-10-09T19:30:06.838Z,72.00
2022-10-09T19:32:34.364Z,71.90
2022-10-09T19:35:02.059Z,71.90
2022-10-09T19:37:30.069Z,71.90
2022-10-09T19:39:59.233Z,71.80
2022-10-09T19:42:26.944Z,71.80
2022-10-09T19:44:54.539Z,71.90
2022-10-09T19:47:22.208Z,71.90
2022-10-09T19:49:50.032Z,71.90
2022-10-09T19:52:17.629Z,71.90
2022-10-09T19:54:45.209Z,71.90
2022-10-09T19:57:14.274Z,71.90
2022-10-09T19:59:41.868Z,71.90
2022-10-09T20:02:09.458Z,71.90
2022-10-09T20:04:37.088Z,71.90
2022-10-09T20:07:07.865Z,71.80
2022-10-09T20:09:38.138Z,71.70
2022-10-09T20:12:05.853Z,71.70
2022-10-09T20:14:34.910Z,71.50
2022-10-09T20:17:03.023Z,71.40
2022-10-09T20:19:30.588Z,71.30
2022-10-09T20:21:58.297Z,71.20
2022-10-09T20:24:25.954Z,71.10
2022-10-09T20:26:53.468Z,70.90
2022-10-09T20:29:21.097Z,70.90
2022-10-09T20:31:50.267Z,70.70
2022-10-09T20:34:17.838Z,70.50
2022-10-09T20:36:45.400Z,70.50
2022-10-09T20:39:14.182Z,70.30
2022-10-09T20:41:42.402Z,70.10
2022-10-09T20:44:11.156Z,70.10
2022-10-09T20:46:39.063Z,70.00
2022-10-09T20:49:10.471Z,70.00
2022-10-09T20:51:38.258Z,69.80
2022-10-09T20:54:06.931Z,69.80
2022-10-09T20:56:34.493Z,69.60
2022-10-09T20:59:02.111Z,69.60
2022-10-09T21:01:29.725Z,69.50
2022-10-09T21:03:57.644Z,69.40
2022-10-09T21:06:26.789Z,69.40
2022-10-09T21:08:54.357Z,69.30
2022-10-09T21:11:22.033Z,69.30
2022-10-09T21:13:49.614Z,69.30
2022-10-09T21:16:18.562Z,69.30
2022-10-09T21:18:46.192Z,69.30
2022-10-09T21:21:15.036Z,69.20
2022-10-09T21:23:44.135Z,69.10
2022-10-09T21:26:11.738Z,69.00
2022-10-09T21:28:39.299Z,69.00
2022-10-09T21:31:09.881Z,69.00
2022-10-09T21:33:37.591Z,68.80
2022-10-09T21:36:09.654Z,68.90
2022-10-09T21:38:37.292Z,68.70
2022-10-09T21:41:06.317Z,68.80
2022-10-09T21:43:33.870Z,68.70
2022-10-09T21:46:01.586Z,68.70
2022-10-09T21:48:29.103Z,68.60
2022-10-09T21:50:57.583Z,68.50
2022-10-09T21:53:25.144Z,68.30
2022-10-09T21:55:52.636Z,68.20
2022-10-09T21:58:21.701Z,68.30
2022-10-09T22:00:55.873Z,68.20
2022-10-09T22:03:25.473Z,68.00
2022-10-09T22:05:53.031Z,68.00
2022-10-09T22:08:20.615Z,68.00
2022-10-09T22:10:48.140Z,68.00
2022-10-09T22:13:15.616Z,67.90
2022-10-09T22:15:47.702Z,67.70
2022-10-09T22:18:18.909Z,67.60
2022-10-09T22:20:47.954Z,67.60
2022-10-09T22:23:15.588Z,67.60
2022-10-09T22:25:43.053Z,67.50
2022-10-09T22:28:10.607Z,67.50
2022-10-09T22:30:38.202Z,67.40
2022-10-09T22:33:07.240Z,67.30
2022-10-09T22:35:34.856Z,67.10
2022-10-09T22:38:02.277Z,67.20
2022-10-09T22:40:29.783Z,67.10
2022-10-09T22:42:57.350Z,67.10
2022-10-09T22:45:24.974Z,67.10
2022-10-09T22:47:52.559Z,67.10
2022-10-09T22:50:21.680Z,66.90
2022-10-09T22:52:50.318Z,66.80
2022-10-09T22:55:18.138Z,66.80
2022-10-09T22:57:45.715Z,66.80
2022-10-09T23:00:15.143Z,66.80
2022-10-09T23:02:42.577Z,66.70
2022-10-09T23:05:10.301Z,66.70
2022-10-09T23:07:39.371Z,66.70
2022-10-09T23:10:07.118Z,66.60
2022-10-09T23:12:34.644Z,66.50
2022-10-09T23:15:02.222Z,66.40
2022-10-09T23:17:29.723Z,66.40
2022-10-09T23:19:57.361Z,66.30
2022-10-09T23:22:24.951Z,67.10
2022-10-09T23:24:53.969Z,66.20
2022-10-09T23:27:21.427Z,66.10
2022-10-09T23:29:49.091Z,66.20
2022-10-09T23:32:16.623Z,66.10
2022-10-09T23:34:44.364Z,66.00
2022-10-09T23:37:11.827Z,66.00
2022-10-09T23:39:39.299Z,66.00
2022-10-09T23:42:08.352Z,66.00
2022-10-09T23:44:35.852Z,65.80
2022-10-09T23:47:03.468Z,65.90
2022-10-09T23:49:30.964Z,65.80
2022-10-09T23:51:58.479Z,65.80
2022-10-09T23:54:26.062Z,65.70
2022-10-09T23:56:53.611Z,65.60
2022-10-09T23:59:22.467Z,65.60
